sensor_id;sensor_type;location;lat;lon;timestamp;P1;durP1;ratioP1;P2;durP2;ratioP2
26271;SDS011;13997;48.902;12.472;2022-09-12T00:01:20;7.32;;;5.30;;
26271;SDS011;13997;48.902;12.472;2022-09-12T00:03:55;6.47;;;5.18;;
26271;SDS011;13997;48.902;12.472;2022-09-12T00:06:40;9.13;;;4.80;;
26271;SDS011;13997;48.902;12.472;2022-09-12T00:09:07;9.20;;;5.35;;
26271;SDS011;13997;48.902;12.472;2022-09-12T00:11:36;6.13;;;5.40;;
26271;SDS011;13997;48.902;12.472;2022-09-12T00:14:07;5.70;;;4.93;;
26271;SDS011;13997;48.902;12.472;2022-09-12T00:16:35;7.78;;;4.88;;
26271;SDS011;13997;48.902;12.472;2022-09-12T00:19:01;13.70;;;4.68;;
26271;SDS011;13997;48.902;12.472;2022-09-12T00:21:28;7.55;;;4.63;;
26271;SDS011;13997;48.902;12.472;2022-09-12T00:23:56;6.25;;;4.57;;
26271;SDS011;13997;48.902;12.472;2022-09-12T00:26:22;9.38;;;4.70;;
26271;SDS011;13997;48.902;12.472;2022-09-12T00:28:47;5.93;;;4.88;;
26271;SDS011;13997;48.902;12.472;2022-09-12T00:31:18;9.95;;;5.25;;
26271;SDS011;13997;48.902;12.472;2022-09-12T00:33:47;7.85;;;4.60;;
26271;SDS011;13997;48.902;12.472;2022-09-12T00:36:18;7.53;;;4.75;;
26271;SDS011;13997;48.902;12.472;2022-09-12T00:38:45;7.07;;;5.15;;
26271;SDS011;13997;48.902;12.472;2022-09-12T00:41:19;9.20;;;5.00;;
26271;SDS011;13997;48.902;12.472;2022-09-12T00:43:47;9.13;;;5.38;;
26271;SDS011;13997;48.902;12.472;2022-09-12T00:48:55;8.68;;;5.40;;
26271;SDS011;13997;48.902;12.472;2022-09-12T00:51:31;6.95;;;5.45;;
26271;SDS011;13997;48.902;12.472;2022-09-12T00:54:02;5.65;;;5.05;;
26271;SDS011;13997;48.902;12.472;2022-09-12T00:56:34;5.32;;;4.82;;
26271;SDS011;13997;48.902;12.472;2022-09-12T00:59:04;8.82;;;4.85;;
26271;SDS011;13997;48.902;12.472;2022-09-12T01:01:36;10.13;;;6.60;;
26271;SDS011;13997;48.902;12.472;2022-09-12T01:04:04;7.38;;;5.18;;
26271;SDS011;13997;48.902;12.472;2022-09-12T01:06:36;8.70;;;5.72;;
26271;SDS011;13997;48.902;12.472;2022-09-12T01:09:05;10.43;;;5.28;;
26271;SDS011;13997;48.902;12.472;2022-09-12T01:11:35;8.65;;;6.00;;
26271;SDS011;13997;48.902;12.472;2022-09-12T01:14:03;8.88;;;5.82;;
26271;SDS011;13997;48.902;12.472;2022-09-12T01:16:28;7.97;;;5.95;;
26271;SDS011;13997;48.902;12.472;2022-09-12T01:19:04;9.18;;;6.50;;
26271;SDS011;13997;48.902;12.472;2022-09-12T01:38:26;12.65;;;6.60;;
26271;SDS011;13997;48.902;12.472;2022-09-12T01:43:51;9.18;;;6.40;;
26271;SDS011;13997;48.902;12.472;2022-09-12T01:46:33;10.10;;;6.50;;
26271;SDS011;13997;48.902;12.472;2022-09-12T01:51:57;9.77;;;6.45;;
26271;SDS011;13997;48.902;12.472;2022-09-12T01:54:30;10.98;;;7.40;;
26271;SDS011;13997;48.902;12.472;2022-09-12T01:57:10;9.23;;;6.32;;
26271;SDS011;13997;48.902;12.472;2022-09-12T01:59:46;12.55;;;6.40;;
26271;SDS011;13997;48.902;12.472;2022-09-12T02:04:51;12.23;;;6.80;;
26271;SDS011;13997;48.902;12.472;2022-09-12T02:07:30;8.75;;;5.82;;
26271;SDS011;13997;48.902;12.472;2022-09-12T02:12:46;10.38;;;5.68;;
26271;SDS011;13997;48.902;12.472;2022-09-12T02:15:13;8.55;;;5.88;;
26271;SDS011;13997;48.902;12.472;2022-09-12T02:17:42;14.07;;;5.88;;
26271;SDS011;13997;48.902;12.472;2022-09-12T02:20:13;10.77;;;5.68;;
26271;SDS011;13997;48.902;12.472;2022-09-12T02:22:44;7.95;;;5.82;;
26271;SDS011;13997;48.902;12.472;2022-09-12T02:25:13;8.20;;;5.68;;
26271;SDS011;13997;48.902;12.472;2022-09-12T02:27:52;9.80;;;5.60;;
26271;SDS011;13997;48.902;12.472;2022-09-12T02:30:31;7.32;;;5.97;;
26271;SDS011;13997;48.902;12.472;2022-09-12T02:33:13;8.90;;;5.88;;
26271;SDS011;13997;48.902;12.472;2022-09-12T02:38:19;9.68;;;5.35;;
26271;SDS011;13997;48.902;12.472;2022-09-12T02:40:50;11.05;;;5.30;;
26271;SDS011;13997;48.902;12.472;2022-09-12T02:43:16;8.55;;;5.65;;
26271;SDS011;13997;48.902;12.472;2022-09-12T02:45:42;9.50;;;5.40;;
26271;SDS011;13997;48.902;12.472;2022-09-12T02:48:09;7.32;;;5.25;;
26271;SDS011;13997;48.902;12.472;2022-09-12T02:50:42;7.88;;;5.70;;
26271;SDS011;13997;48.902;12.472;2022-09-12T02:53:08;12.82;;;5.60;;
26271;SDS011;13997;48.902;12.472;2022-09-12T02:55:34;10.63;;;5.60;;
26271;SDS011;13997;48.902;12.472;2022-09-12T02:58:02;8.10;;;5.30;;
26271;SDS011;13997;48.902;12.472;2022-09-12T03:00:30;7.82;;;5.90;;
26271;SDS011;13997;48.902;12.472;2022-09-12T03:03:08;8.43;;;5.55;;
26271;SDS011;13997;48.902;12.472;2022-09-12T03:08:28;7.82;;;5.40;;
26271;SDS011;13997;48.902;12.472;2022-09-12T03:22:50;13.93;;;6.27;;
26271;SDS011;13997;48.902;12.472;2022-09-12T03:25:33;7.55;;;5.28;;
26271;SDS011;13997;48.902;12.472;2022-09-12T03:28:08;8.43;;;5.30;;
26271;SDS011;13997;48.902;12.472;2022-09-12T03:30:40;8.43;;;4.60;;
26271;SDS011;13997;48.902;12.472;2022-09-12T03:33:12;6.78;;;5.20;;
26271;SDS011;13997;48.902;12.472;2022-09-12T03:35:39;9.52;;;4.72;;
26271;SDS011;13997;48.902;12.472;2022-09-12T03:38:05;7.97;;;5.20;;
26271;SDS011;13997;48.902;12.472;2022-09-12T03:40:32;11.88;;;5.32;;
26271;SDS011;13997;48.902;12.472;2022-09-12T03:42:58;8.02;;;5.07;;
26271;SDS011;13997;48.902;12.472;2022-09-12T03:45:24;8.88;;;5.20;;
26271;SDS011;13997;48.902;12.472;2022-09-12T03:47:49;5.78;;;4.80;;
26271;SDS011;13997;48.902;12.472;2022-09-12T03:50:15;6.50;;;4.95;;
26271;SDS011;13997;48.902;12.472;2022-09-12T03:52:40;5.90;;;4.78;;
26271;SDS011;13997;48.902;12.472;2022-09-12T03:55:06;7.88;;;4.93;;
26271;SDS011;13997;48.902;12.472;2022-09-12T03:57:32;6.78;;;5.30;;
26271;SDS011;13997;48.902;12.472;2022-09-12T03:59:57;11.65;;;5.00;;
26271;SDS011;13997;48.902;12.472;2022-09-12T04:02:23;8.18;;;4.88;;
26271;SDS011;13997;48.902;12.472;2022-09-12T04:04:48;7.97;;;4.93;;
26271;SDS011;13997;48.902;12.472;2022-09-12T04:07:14;10.65;;;5.00;;
26271;SDS011;13997;48.902;12.472;2022-09-12T04:09:40;15.30;;;5.75;;
26271;SDS011;13997;48.902;12.472;2022-09-12T04:12:06;10.23;;;5.65;;
26271;SDS011;13997;48.902;12.472;2022-09-12T04:14:32;11.68;;;6.10;;
26271;SDS011;13997;48.902;12.472;2022-09-12T04:16:57;16.67;;;7.75;;
26271;SDS011;13997;48.902;12.472;2022-09-12T04:19:24;14.75;;;8.02;;
26271;SDS011;13997;48.902;12.472;2022-09-12T04:21:50;14.25;;;7.65;;
26271;SDS011;13997;48.902;12.472;2022-09-12T04:24:15;17.35;;;8.15;;
26271;SDS011;13997;48.902;12.472;2022-09-12T04:26:41;15.00;;;7.65;;
26271;SDS011;13997;48.902;12.472;2022-09-12T04:29:08;23.08;;;9.07;;
26271;SDS011;13997;48.902;12.472;2022-09-12T04:31:35;17.75;;;9.93;;
26271;SDS011;13997;48.902;12.472;2022-09-12T04:34:01;22.70;;;10.43;;
26271;SDS011;13997;48.902;12.472;2022-09-12T04:36:27;19.75;;;10.32;;
26271;SDS011;13997;48.902;12.472;2022-09-12T04:38:53;17.88;;;10.77;;
26271;SDS011;13997;48.902;12.472;2022-09-12T04:41:23;16.25;;;10.40;;
26271;SDS011;13997;48.902;12.472;2022-09-12T04:43:54;18.45;;;11.88;;
26271;SDS011;13997;48.902;12.472;2022-09-12T04:46:28;16.38;;;10.98;;
26271;SDS011;13997;48.902;12.472;2022-09-12T04:48:55;19.85;;;12.20;;
26271;SDS011;13997;48.902;12.472;2022-09-12T04:51:22;16.05;;;10.88;;
26271;SDS011;13997;48.902;12.472;2022-09-12T04:53:54;24.77;;;11.48;;
26271;SDS011;13997;48.902;12.472;2022-09-12T04:56:21;17.20;;;12.00;;
26271;SDS011;13997;48.902;12.472;2022-09-12T04:58:48;17.60;;;12.18;;
26271;SDS011;13997;48.902;12.472;2022-09-12T05:01:15;33.83;;;13.60;;
26271;SDS011;13997;48.902;12.472;2022-09-12T05:03:42;20.77;;;12.88;;
26271;SDS011;13997;48.902;12.472;2022-09-12T05:06:10;46.13;;;13.93;;
26271;SDS011;13997;48.902;12.472;2022-09-12T05:08:38;19.67;;;13.80;;
26271;SDS011;13997;48.902;12.472;2022-09-12T05:11:05;25.92;;;14.70;;
26271;SDS011;13997;48.902;12.472;2022-09-12T05:13:36;26.90;;;13.38;;
26271;SDS011;13997;48.902;12.472;2022-09-12T05:16:03;19.65;;;13.35;;
26271;SDS011;13997;48.902;12.472;2022-09-12T05:18:33;19.20;;;12.80;;
26271;SDS011;13997;48.902;12.472;2022-09-12T05:21:00;23.17;;;12.95;;
26271;SDS011;13997;48.902;12.472;2022-09-12T05:23:28;26.75;;;13.52;;
26271;SDS011;13997;48.902;12.472;2022-09-12T05:25:55;15.93;;;12.88;;
26271;SDS011;13997;48.902;12.472;2022-09-12T05:28:23;23.58;;;13.63;;
26271;SDS011;13997;48.902;12.472;2022-09-12T05:30:59;16.95;;;12.27;;
26271;SDS011;13997;48.902;12.472;2022-09-12T05:33:29;17.55;;;13.35;;
26271;SDS011;13997;48.902;12.472;2022-09-12T05:35:56;18.35;;;12.90;;
26271;SDS011;13997;48.902;12.472;2022-09-12T05:38:22;30.23;;;13.75;;
26271;SDS011;13997;48.902;12.472;2022-09-12T05:40:53;17.15;;;12.65;;
26271;SDS011;13997;48.902;12.472;2022-09-12T05:43:27;17.15;;;12.98;;
26271;SDS011;13997;48.902;12.472;2022-09-12T05:45:58;38.92;;;13.27;;
26271;SDS011;13997;48.902;12.472;2022-09-12T05:48:25;40.08;;;13.75;;
26271;SDS011;13997;48.902;12.472;2022-09-12T05:50:57;17.02;;;13.50;;
26271;SDS011;13997;48.902;12.472;2022-09-12T05:53:28;15.55;;;12.07;;
26271;SDS011;13997;48.902;12.472;2022-09-12T05:56:02;14.43;;;12.00;;
26271;SDS011;13997;48.902;12.472;2022-09-12T05:58:33;18.55;;;11.38;;
26271;SDS011;13997;48.902;12.472;2022-09-12T06:01:06;18.17;;;11.18;;
26271;SDS011;13997;48.902;12.472;2022-09-12T06:03:39;15.65;;;11.93;;
26271;SDS011;13997;48.902;12.472;2022-09-12T06:06:07;39.25;;;13.50;;
26271;SDS011;13997;48.902;12.472;2022-09-12T06:08:33;15.63;;;12.63;;
26271;SDS011;13997;48.902;12.472;2022-09-12T06:11:03;16.17;;;13.30;;
26271;SDS011;13997;48.902;12.472;2022-09-12T06:13:31;18.20;;;13.10;;
26271;SDS011;13997;48.902;12.472;2022-09-12T06:19:06;70.82;;;13.57;;
26271;SDS011;13997;48.902;12.472;2022-09-12T06:21:36;16.23;;;12.50;;
26271;SDS011;13997;48.902;12.472;2022-09-12T06:24:03;18.17;;;13.93;;
26271;SDS011;13997;48.902;12.472;2022-09-12T06:26:31;31.08;;;14.18;;
26271;SDS011;13997;48.902;12.472;2022-09-12T06:28:58;18.33;;;13.77;;
26271;SDS011;13997;48.902;12.472;2022-09-12T06:31:29;19.55;;;12.15;;
26271;SDS011;13997;48.902;12.472;2022-09-12T06:34:00;23.73;;;13.20;;
26271;SDS011;13997;48.902;12.472;2022-09-12T06:36:28;17.35;;;13.48;;
26271;SDS011;13997;48.902;12.472;2022-09-12T06:38:57;44.92;;;13.40;;
26271;SDS011;13997;48.902;12.472;2022-09-12T06:41:43;14.65;;;11.95;;
26271;SDS011;13997;48.902;12.472;2022-09-12T06:44:10;16.45;;;12.98;;
26271;SDS011;13997;48.902;12.472;2022-09-12T06:46:38;20.35;;;13.75;;
26271;SDS011;13997;48.902;12.472;2022-09-12T06:49:03;15.27;;;12.98;;
26271;SDS011;13997;48.902;12.472;2022-09-12T06:51:29;91.13;;;13.88;;
26271;SDS011;13997;48.902;12.472;2022-09-12T06:53:55;69.25;;;14.90;;
26271;SDS011;13997;48.902;12.472;2022-09-12T06:56:22;18.52;;;13.65;;
26271;SDS011;13997;48.902;12.472;2022-09-12T06:58:49;17.60;;;13.13;;
26271;SDS011;13997;48.902;12.472;2022-09-12T07:01:18;30.20;;;13.18;;
26271;SDS011;13997;48.902;12.472;2022-09-12T07:03:52;19.05;;;12.13;;
26271;SDS011;13997;48.902;12.472;2022-09-12T07:06:20;19.17;;;13.70;;
26271;SDS011;13997;48.902;12.472;2022-09-12T07:08:48;20.60;;;13.43;;
26271;SDS011;13997;48.902;12.472;2022-09-12T07:11:18;103.03;;;15.23;;
26271;SDS011;13997;48.902;12.472;2022-09-12T07:13:52;66.55;;;15.00;;
26271;SDS011;13997;48.902;12.472;2022-09-12T07:16:19;49.45;;;16.15;;
26271;SDS011;13997;48.902;12.472;2022-09-12T07:18:48;54.70;;;16.30;;
26271;SDS011;13997;48.902;12.472;2022-09-12T07:21:17;25.77;;;14.98;;
26271;SDS011;13997;48.902;12.472;2022-09-12T07:23:43;19.42;;;14.73;;
26271;SDS011;13997;48.902;12.472;2022-09-12T07:26:10;13.35;;;11.52;;
26271;SDS011;13997;48.902;12.472;2022-09-12T07:28:37;26.20;;;13.98;;
26271;SDS011;13997;48.902;12.472;2022-09-12T07:31:04;31.02;;;14.05;;
26271;SDS011;13997;48.902;12.472;2022-09-12T07:33:31;19.50;;;14.20;;
26271;SDS011;13997;48.902;12.472;2022-09-12T07:36:03;22.63;;;14.68;;
26271;SDS011;13997;48.902;12.472;2022-09-12T07:38:31;21.60;;;14.50;;
26271;SDS011;13997;48.902;12.472;2022-09-12T07:40:56;17.10;;;12.80;;
26271;SDS011;13997;48.902;12.472;2022-09-12T07:43:22;14.68;;;12.88;;
26271;SDS011;13997;48.902;12.472;2022-09-12T07:45:53;16.30;;;13.43;;
26271;SDS011;13997;48.902;12.472;2022-09-12T07:48:19;16.15;;;13.07;;
26271;SDS011;13997;48.902;12.472;2022-09-12T07:50:45;15.93;;;12.60;;
26271;SDS011;13997;48.902;12.472;2022-09-12T07:53:10;16.77;;;12.63;;
26271;SDS011;13997;48.902;12.472;2022-09-12T07:55:36;14.02;;;11.20;;
26271;SDS011;13997;48.902;12.472;2022-09-12T07:58:02;16.95;;;13.15;;
26271;SDS011;13997;48.902;12.472;2022-09-12T08:00:28;14.73;;;12.20;;
26271;SDS011;13997;48.902;12.472;2022-09-12T08:02:59;15.88;;;12.43;;
26271;SDS011;13997;48.902;12.472;2022-09-12T08:05:26;15.65;;;12.32;;
26271;SDS011;13997;48.902;12.472;2022-09-12T08:07:53;17.55;;;12.93;;
26271;SDS011;13997;48.902;12.472;2022-09-12T08:10:20;18.52;;;13.82;;
26271;SDS011;13997;48.902;12.472;2022-09-12T08:12:45;17.83;;;13.48;;
26271;SDS011;13997;48.902;12.472;2022-09-12T08:15:11;16.95;;;14.00;;
26271;SDS011;13997;48.902;12.472;2022-09-12T08:17:37;16.17;;;12.85;;
26271;SDS011;13997;48.902;12.472;2022-09-12T08:20:05;13.55;;;11.38;;
26271;SDS011;13997;48.902;12.472;2022-09-12T08:22:31;15.50;;;12.45;;
26271;SDS011;13997;48.902;12.472;2022-09-12T08:24:57;21.73;;;13.57;;
26271;SDS011;13997;48.902;12.472;2022-09-12T08:27:23;17.60;;;11.98;;
26271;SDS011;13997;48.902;12.472;2022-09-12T08:29:49;15.02;;;11.75;;
26271;SDS011;13997;48.902;12.472;2022-09-12T08:32:15;15.40;;;12.93;;
26271;SDS011;13997;48.902;12.472;2022-09-12T08:34:41;15.48;;;12.18;;
26271;SDS011;13997;48.902;12.472;2022-09-12T08:37:07;14.63;;;11.80;;
26271;SDS011;13997;48.902;12.472;2022-09-12T08:39:33;15.27;;;12.65;;
26271;SDS011;13997;48.902;12.472;2022-09-12T08:42:03;13.32;;;10.77;;
26271;SDS011;13997;48.902;12.472;2022-09-12T08:52:17;16.75;;;12.35;;
26271;SDS011;13997;48.902;12.472;2022-09-12T08:54:44;14.68;;;12.02;;
26271;SDS011;13997;48.902;12.472;2022-09-12T08:57:11;13.48;;;11.82;;
26271;SDS011;13997;48.902;12.472;2022-09-12T08:59:42;14.43;;;12.45;;
26271;SDS011;13997;48.902;12.472;2022-09-12T09:05:02;14.45;;;12.85;;
26271;SDS011;13997;48.902;12.472;2022-09-12T09:07:32;15.35;;;13.30;;
26271;SDS011;13997;48.902;12.472;2022-09-12T09:17:53;16.45;;;13.88;;
26271;SDS011;13997;48.902;12.472;2022-09-12T09:22:50;16.63;;;14.65;;
26271;SDS011;13997;48.902;12.472;2022-09-12T09:25:24;19.02;;;15.10;;
26271;SDS011;13997;48.902;12.472;2022-09-12T09:28:01;20.30;;;15.68;;
26271;SDS011;13997;48.902;12.472;2022-09-12T09:30:29;17.38;;;13.75;;
26271;SDS011;13997;48.902;12.472;2022-09-12T09:32:57;16.40;;;14.23;;
26271;SDS011;13997;48.902;12.472;2022-09-12T09:38:06;15.60;;;13.68;;
26271;SDS011;13997;48.902;12.472;2022-09-12T09:40:39;17.40;;;14.18;;
26271;SDS011;13997;48.902;12.472;2022-09-12T09:43:15;15.70;;;14.00;;
26271;SDS011;13997;48.902;12.472;2022-09-12T09:45:43;18.42;;;14.20;;
26271;SDS011;13997;48.902;12.472;2022-09-12T09:50:35;17.27;;;14.70;;
26271;SDS011;13997;48.902;12.472;2022-09-12T09:53:02;18.63;;;14.35;;
26271;SDS011;13997;48.902;12.472;2022-09-12T09:55:33;18.75;;;15.27;;
26271;SDS011;13997;48.902;12.472;2022-09-12T09:58:03;16.92;;;14.63;;
26271;SDS011;13997;48.902;12.472;2022-09-12T10:00:33;15.75;;;13.73;;
26271;SDS011;13997;48.902;12.472;2022-09-12T10:03:03;17.67;;;14.93;;
26271;SDS011;13997;48.902;12.472;2022-09-12T10:05:32;16.23;;;13.80;;
26271;SDS011;13997;48.902;12.472;2022-09-12T10:07:59;18.10;;;14.75;;
26271;SDS011;13997;48.902;12.472;2022-09-12T10:10:25;17.75;;;15.02;;
26271;SDS011;13997;48.902;12.472;2022-09-12T10:13:05;16.45;;;13.82;;
26271;SDS011;13997;48.902;12.472;2022-09-12T10:15:33;16.15;;;13.65;;
26271;SDS011;13997;48.902;12.472;2022-09-12T10:17:59;16.77;;;14.38;;
26271;SDS011;13997;48.902;12.472;2022-09-12T10:20:38;19.63;;;14.57;;
26271;SDS011;13997;48.902;12.472;2022-09-12T10:25:53;18.75;;;12.93;;
26271;SDS011;13997;48.902;12.472;2022-09-12T10:28:20;17.65;;;13.77;;
26271;SDS011;13997;48.902;12.472;2022-09-12T10:30:51;15.63;;;13.85;;
26271;SDS011;13997;48.902;12.472;2022-09-12T10:33:18;20.65;;;14.30;;
26271;SDS011;13997;48.902;12.472;2022-09-12T10:35:46;17.85;;;13.52;;
26271;SDS011;13997;48.902;12.472;2022-09-12T10:38:19;15.57;;;13.43;;
26271;SDS011;13997;48.902;12.472;2022-09-12T10:40:53;16.05;;;13.27;;
26271;SDS011;13997;48.902;12.472;2022-09-12T10:43:29;15.07;;;12.23;;
26271;SDS011;13997;48.902;12.472;2022-09-12T10:48:45;15.43;;;12.55;;
26271;SDS011;13997;48.902;12.472;2022-09-12T10:54:02;16.70;;;12.68;;
26271;SDS011;13997;48.902;12.472;2022-09-12T10:56:30;17.05;;;11.85;;
26271;SDS011;13997;48.902;12.472;2022-09-12T11:15:31;12.73;;;10.13;;
26271;SDS011;13997;48.902;12.472;2022-09-12T11:18:05;15.40;;;10.75;;
26271;SDS011;13997;48.902;12.472;2022-09-12T11:20:58;15.27;;;11.32;;
26271;SDS011;13997;48.902;12.472;2022-09-12T11:29:29;14.77;;;10.55;;
26271;SDS011;13997;48.902;12.472;2022-09-12T11:40:48;9.32;;;7.72;;
26271;SDS011;13997;48.902;12.472;2022-09-12T11:48:53;13.40;;;7.40;;
26271;SDS011;13997;48.902;12.472;2022-09-12T11:51:22;8.05;;;6.32;;
26271;SDS011;13997;48.902;12.472;2022-09-12T11:53:58;8.15;;;6.40;;
26271;SDS011;13997;48.902;12.472;2022-09-12T11:56:46;8.20;;;6.07;;
26271;SDS011;13997;48.902;12.472;2022-09-12T11:59:25;5.63;;;5.07;;
26271;SDS011;13997;48.902;12.472;2022-09-12T12:02:07;7.43;;;6.15;;
26271;SDS011;13997;48.902;12.472;2022-09-12T12:04:58;7.93;;;6.20;;
26271;SDS011;13997;48.902;12.472;2022-09-12T12:07:41;7.70;;;6.90;;
26271;SDS011;13997;48.902;12.472;2022-09-12T12:12:50;9.80;;;6.97;;
26271;SDS011;13997;48.902;12.472;2022-09-12T12:15:17;10.43;;;6.72;;
26271;SDS011;13997;48.902;12.472;2022-09-12T12:17:44;7.05;;;6.20;;
26271;SDS011;13997;48.902;12.472;2022-09-12T12:20:23;9.65;;;6.00;;
26271;SDS011;13997;48.902;12.472;2022-09-12T12:22:50;8.70;;;6.15;;
26271;SDS011;13997;48.902;12.472;2022-09-12T12:32:57;10.40;;;5.40;;
26271;SDS011;13997;48.902;12.472;2022-09-12T12:44:00;6.95;;;4.57;;
26271;SDS011;13997;48.902;12.472;2022-09-12T12:47:18;6.47;;;4.20;;
26271;SDS011;13997;48.902;12.472;2022-09-12T12:52:24;8.50;;;4.72;;
26271;SDS011;13997;48.902;12.472;2022-09-12T12:54:55;4.95;;;4.45;;
26271;SDS011;13997;48.902;12.472;2022-09-12T12:57:37;4.90;;;3.85;;
26271;SDS011;13997;48.902;12.472;2022-09-12T13:00:24;6.18;;;4.30;;
26271;SDS011;13997;48.902;12.472;2022-09-12T13:05:41;6.68;;;5.32;;
26271;SDS011;13997;48.902;12.472;2022-09-12T13:10:47;8.60;;;4.53;;
26271;SDS011;13997;48.902;12.472;2022-09-12T13:16:08;6.20;;;4.13;;
26271;SDS011;13997;48.902;12.472;2022-09-12T13:18:47;8.18;;;3.90;;
26271;SDS011;13997;48.902;12.472;2022-09-12T13:23:40;5.95;;;4.20;;
26271;SDS011;13997;48.902;12.472;2022-09-12T13:26:11;4.32;;;3.38;;
26271;SDS011;13997;48.902;12.472;2022-09-12T13:28:38;8.38;;;3.42;;
26271;SDS011;13997;48.902;12.472;2022-09-12T13:33:46;6.88;;;3.45;;
26271;SDS011;13997;48.902;12.472;2022-09-12T13:39:23;3.65;;;2.60;;
26271;SDS011;13997;48.902;12.472;2022-09-12T13:45:13;3.67;;;3.20;;
26271;SDS011;13997;48.902;12.472;2022-09-12T13:47:43;5.47;;;3.10;;
26271;SDS011;13997;48.902;12.472;2022-09-12T13:50:16;5.32;;;3.20;;
26271;SDS011;13997;48.902;12.472;2022-09-12T13:52:48;5.10;;;3.30;;
26271;SDS011;13997;48.902;12.472;2022-09-12T13:55:25;4.85;;;3.30;;
26271;SDS011;13997;48.902;12.472;2022-09-12T13:57:56;7.20;;;2.75;;
26271;SDS011;13997;48.902;12.472;2022-09-12T14:00:27;3.88;;;2.90;;
26271;SDS011;13997;48.902;12.472;2022-09-12T14:02:55;5.03;;;2.55;;
26271;SDS011;13997;48.902;12.472;2022-09-12T14:05:40;3.40;;;2.50;;
26271;SDS011;13997;48.902;12.472;2022-09-12T14:08:08;2.38;;;2.17;;
26271;SDS011;13997;48.902;12.472;2022-09-12T14:10:38;2.35;;;2.00;;
26271;SDS011;13997;48.902;12.472;2022-09-12T14:13:10;3.40;;;2.20;;
26271;SDS011;13997;48.902;12.472;2022-09-12T14:15:49;4.45;;;2.42;;
26271;SDS011;13997;48.902;12.472;2022-09-12T14:18:21;3.42;;;2.03;;
26271;SDS011;13997;48.902;12.472;2022-09-12T14:20:50;6.82;;;2.38;;
26271;SDS011;13997;48.902;12.472;2022-09-12T14:23:20;4.10;;;2.40;;
26271;SDS011;13997;48.902;12.472;2022-09-12T14:25:57;2.30;;;2.10;;
26271;SDS011;13997;48.902;12.472;2022-09-12T14:28:26;3.30;;;2.47;;
26271;SDS011;13997;48.902;12.472;2022-09-12T14:31:04;3.22;;;2.30;;
26271;SDS011;13997;48.902;12.472;2022-09-12T14:36:24;3.10;;;2.28;;
26271;SDS011;13997;48.902;12.472;2022-09-12T14:38:57;3.70;;;2.30;;
26271;SDS011;13997;48.902;12.472;2022-09-12T14:41:43;8.43;;;2.40;;
26271;SDS011;13997;48.902;12.472;2022-09-12T14:44:21;3.22;;;2.22;;
26271;SDS011;13997;48.902;12.472;2022-09-12T14:46:49;5.80;;;2.20;;
26271;SDS011;13997;48.902;12.472;2022-09-12T14:49:19;5.35;;;2.30;;
26271;SDS011;13997;48.902;12.472;2022-09-12T14:51:55;3.80;;;2.50;;
26271;SDS011;13997;48.902;12.472;2022-09-12T14:56:53;2.88;;;1.98;;
26271;SDS011;13997;48.902;12.472;2022-09-12T15:02:38;2.20;;;1.80;;
26271;SDS011;13997;48.902;12.472;2022-09-12T15:07:33;6.10;;;1.90;;
26271;SDS011;13997;48.902;12.472;2022-09-12T15:10:02;4.53;;;2.28;;
26271;SDS011;13997;48.902;12.472;2022-09-12T15:12:34;3.03;;;2.20;;
26271;SDS011;13997;48.902;12.472;2022-09-12T15:15:12;3.72;;;2.45;;
26271;SDS011;13997;48.902;12.472;2022-09-12T15:17:39;3.00;;;2.20;;
26271;SDS011;13997;48.902;12.472;2022-09-12T15:20:06;2.72;;;1.92;;
26271;SDS011;13997;48.902;12.472;2022-09-12T15:22:32;5.45;;;2.20;;
26271;SDS011;13997;48.902;12.472;2022-09-12T15:24:58;3.05;;;1.83;;
26271;SDS011;13997;48.902;12.472;2022-09-12T15:27:24;2.70;;;2.17;;
26271;SDS011;13997;48.902;12.472;2022-09-12T15:29:52;2.55;;;2.00;;
26271;SDS011;13997;48.902;12.472;2022-09-12T15:32:24;3.65;;;2.47;;
26271;SDS011;13997;48.902;12.472;2022-09-12T15:34:52;3.40;;;2.08;;
26271;SDS011;13997;48.902;12.472;2022-09-12T15:37:18;4.93;;;3.05;;
26271;SDS011;13997;48.902;12.472;2022-09-12T15:39:46;3.00;;;2.00;;
26271;SDS011;13997;48.902;12.472;2022-09-12T15:42:11;3.33;;;2.13;;
26271;SDS011;13997;48.902;12.472;2022-09-12T15:44:38;4.85;;;2.33;;
26271;SDS011;13997;48.902;12.472;2022-09-12T15:47:04;4.78;;;2.20;;
26271;SDS011;13997;48.902;12.472;2022-09-12T15:49:30;4.15;;;2.40;;
26271;SDS011;13997;48.902;12.472;2022-09-12T15:51:56;3.97;;;2.05;;
26271;SDS011;13997;48.902;12.472;2022-09-12T15:54:22;5.40;;;2.10;;
26271;SDS011;13997;48.902;12.472;2022-09-12T15:56:47;3.08;;;2.28;;
26271;SDS011;13997;48.902;12.472;2022-09-12T15:59:13;3.00;;;2.30;;
26271;SDS011;13997;48.902;12.472;2022-09-12T16:01:39;2.55;;;2.00;;
26271;SDS011;13997;48.902;12.472;2022-09-12T16:04:13;4.57;;;2.53;;
26271;SDS011;13997;48.902;12.472;2022-09-12T16:06:51;3.90;;;2.40;;
26271;SDS011;13997;48.902;12.472;2022-09-12T16:09:17;10.15;;;3.53;;
26271;SDS011;13997;48.902;12.472;2022-09-12T16:11:44;4.45;;;3.40;;
26271;SDS011;13997;48.902;12.472;2022-09-12T16:14:14;3.63;;;2.60;;
26271;SDS011;13997;48.902;12.472;2022-09-12T16:16:41;4.18;;;3.00;;
26271;SDS011;13997;48.902;12.472;2022-09-12T16:19:07;8.00;;;2.80;;
26271;SDS011;13997;48.902;12.472;2022-09-12T16:21:37;3.22;;;2.60;;
26271;SDS011;13997;48.902;12.472;2022-09-12T16:24:03;5.15;;;2.40;;
26271;SDS011;13997;48.902;12.472;2022-09-12T16:26:28;3.75;;;2.35;;
26271;SDS011;13997;48.902;12.472;2022-09-12T16:28:55;5.15;;;2.60;;
26271;SDS011;13997;48.902;12.472;2022-09-12T16:31:21;3.20;;;2.33;;
26271;SDS011;13997;48.902;12.472;2022-09-12T16:33:47;5.32;;;2.33;;
26271;SDS011;13997;48.902;12.472;2022-09-12T16:36:14;4.85;;;2.42;;
26271;SDS011;13997;48.902;12.472;2022-09-12T16:38:43;2.88;;;2.58;;
26271;SDS011;13997;48.902;12.472;2022-09-12T16:41:10;5.28;;;2.35;;
26271;SDS011;13997;48.902;12.472;2022-09-12T16:43:36;5.72;;;2.20;;
26271;SDS011;13997;48.902;12.472;2022-09-12T16:46:06;10.80;;;2.80;;
26271;SDS011;13997;48.902;12.472;2022-09-12T16:48:40;2.75;;;2.13;;
26271;SDS011;13997;48.902;12.472;2022-09-12T16:51:08;6.75;;;2.15;;
26271;SDS011;13997;48.902;12.472;2022-09-12T16:53:35;4.60;;;2.60;;
26271;SDS011;13997;48.902;12.472;2022-09-12T16:56:02;3.72;;;2.25;;
26271;SDS011;13997;48.902;12.472;2022-09-12T16:58:31;3.75;;;2.50;;
26271;SDS011;13997;48.902;12.472;2022-09-12T17:00:58;2.78;;;2.45;;
26271;SDS011;13997;48.902;12.472;2022-09-12T17:03:27;3.13;;;2.53;;
26271;SDS011;13997;48.902;12.472;2022-09-12T17:06:00;3.42;;;2.70;;
26271;SDS011;13997;48.902;12.472;2022-09-12T17:08:29;5.20;;;2.70;;
26271;SDS011;13997;48.902;12.472;2022-09-12T17:11:00;5.22;;;3.38;;
26271;SDS011;13997;48.902;12.472;2022-09-12T17:13:27;6.10;;;4.30;;
26271;SDS011;13997;48.902;12.472;2022-09-12T17:15:53;5.63;;;4.80;;
26271;SDS011;13997;48.902;12.472;2022-09-12T17:18:18;4.63;;;3.58;;
26271;SDS011;13997;48.902;12.472;2022-09-12T17:20:44;7.30;;;3.53;;
26271;SDS011;13997;48.902;12.472;2022-09-12T17:23:09;12.32;;;3.33;;
26271;SDS011;13997;48.902;12.472;2022-09-12T17:25:35;9.75;;;3.20;;
26271;SDS011;13997;48.902;12.472;2022-09-12T17:28:01;5.90;;;3.45;;
26271;SDS011;13997;48.902;12.472;2022-09-12T17:30:30;4.43;;;3.42;;
26271;SDS011;13997;48.902;12.472;2022-09-12T17:32:58;4.88;;;3.15;;